sensor_id;sensor_type;location;lat;lon;timestamp;pressure;altitude;pressure_sealevel;temperature
76009;BMP280;64700;52.130;21.270;2023-05-02T00:02:08;100647.22;;;19.46
76009;BMP280;64700;52.130;21.270;2023-05-02T00:04:34;100643.28;;;19.47
76009;BMP280;64700;52.130;21.270;2023-05-02T00:06:59;100648.72;;;19.47
76009;BMP280;64700;52.130;21.270;2023-05-02T00:09:24;100641.78;;;19.46
76009;BMP280;64700;52.130;21.270;2023-05-02T00:11:50;100640.31;;;19.45
76009;BMP280;64700;52.130;21.270;2023-05-02T00:14:15;100628.22;;;19.46
76009;BMP280;64700;52.130;21.270;2023-05-02T00:16:40;100629.44;;;19.45
76009;BMP280;64700;52.130;21.270;2023-05-02T00:19:05;100631.41;;;19.45
76009;BMP280;64700;52.130;21.270;2023-05-02T00:21:30;100623.69;;;19.43
76009;BMP280;64700;52.130;21.270;2023-05-02T00:23:56;100613.59;;;19.44
76009;BMP280;64700;52.130;21.270;2023-05-02T00:26:22;100624.44;;;19.44
76009;BMP280;64700;52.130;21.270;2023-05-02T00:28:47;100619.03;;;19.44
76009;BMP280;64700;52.130;21.270;2023-05-02T00:31:13;100615.56;;;19.43
76009;BMP280;64700;52.130;21.270;2023-05-02T00:33:38;100614.03;;;19.42
76009;BMP280;64700;52.130;21.270;2023-05-02T00:36:03;100612.84;;;19.43
76009;BMP280;64700;52.130;21.270;2023-05-02T00:38:28;100611.31;;;19.42
76009;BMP280;64700;52.130;21.270;2023-05-02T00:40:54;100611.03;;;19.40
76009;BMP280;64700;52.130;21.270;2023-05-02T00:43:19;100607.56;;;19.40
76009;BMP280;64700;52.130;21.270;2023-05-02T00:45:45;100607.56;;;19.40
76009;BMP280;64700;52.130;21.270;2023-05-02T00:48:10;100597.00;;;19.42
76009;BMP280;64700;52.130;21.270;2023-05-02T00:50:36;100603.94;;;19.43
76009;BMP280;64700;52.130;21.270;2023-05-02T00:53:02;100592.81;;;19.41
76009;BMP280;64700;52.130;21.270;2023-05-02T00:55:28;100594.78;;;19.40
76009;BMP280;64700;52.130;21.270;2023-05-02T00:57:53;100592.06;;;19.40
76009;BMP280;64700;52.130;21.270;2023-05-02T01:00:18;100590.84;;;19.41
76009;BMP280;64700;52.130;21.270;2023-05-02T01:05:29;100593.25;;;19.39
76009;BMP280;64700;52.130;21.270;2023-05-02T01:10:29;100595.66;;;19.37
76009;BMP280;64700;52.130;21.270;2023-05-02T01:13:06;100590.22;;;19.37
76009;BMP280;64700;52.130;21.270;2023-05-02T01:15:32;100592.19;;;19.37
76009;BMP280;64700;52.130;21.270;2023-05-02T01:17:59;100594.91;;;19.37
76009;BMP280;64700;52.130;21.270;2023-05-02T01:20:25;100595.66;;;19.37
76009;BMP280;64700;52.130;21.270;2023-05-02T01:22:51;100593.41;;;19.36
76009;BMP280;64700;52.130;21.270;2023-05-02T01:25:25;100592.66;;;19.35
76009;BMP280;64700;52.130;21.270;2023-05-02T01:28:08;100584.34;;;19.30
76009;BMP280;64700;52.130;21.270;2023-05-02T01:30:35;100588.75;;;19.36
76009;BMP280;64700;52.130;21.270;2023-05-02T01:33:02;100586.47;;;19.35
76009;BMP280;64700;52.130;21.270;2023-05-02T01:35:28;100580.88;;;19.29
76009;BMP280;64700;52.130;21.270;2023-05-02T01:37:54;100584.22;;;19.33
76009;BMP280;64700;52.130;21.270;2023-05-02T01:40:21;100581.81;;;19.35
76009;BMP280;64700;52.130;21.270;2023-05-02T01:42:47;100583.47;;;19.33
76009;BMP280;64700;52.130;21.270;2023-05-02T01:45:14;100573.84;;;19.32
76009;BMP280;64700;52.130;21.270;2023-05-02T01:47:40;100572.16;;;19.34
76009;BMP280;64700;52.130;21.270;2023-05-02T01:50:06;100570.66;;;19.33
76009;BMP280;64700;52.130;21.270;2023-05-02T01:52:32;100568.41;;;19.32
76009;BMP280;64700;52.130;21.270;2023-05-02T01:54:58;100559.53;;;19.31
76009;BMP280;64700;52.130;21.270;2023-05-02T01:57:24;100561.47;;;19.31
76009;BMP280;64700;52.130;21.270;2023-05-02T01:59:50;100554.84;;;19.32
76009;BMP280;64700;52.130;21.270;2023-05-02T02:02:16;100548.34;;;19.29
76009;BMP280;64700;52.130;21.270;2023-05-02T02:04:41;100555.16;;;19.34
76009;BMP280;64700;52.130;21.270;2023-05-02T02:07:08;100546.72;;;19.32
76009;BMP280;64700;52.130;21.270;2023-05-02T02:09:33;100545.97;;;19.31
76009;BMP280;64700;52.130;21.270;2023-05-02T02:12:14;100548.69;;;19.31
76009;BMP280;64700;52.130;21.270;2023-05-02T02:14:45;100548.34;;;19.29
76009;BMP280;64700;52.130;21.270;2023-05-02T02:17:20;100545.22;;;19.31
76009;BMP280;64700;52.130;21.270;2023-05-02T02:19:46;100541.88;;;19.26
76009;BMP280;64700;52.130;21.270;2023-05-02T02:22:12;100540.19;;;19.29
76009;BMP280;64700;52.130;21.270;2023-05-02T02:24:38;100540.19;;;19.29
76009;BMP280;64700;52.130;21.270;2023-05-02T02:27:04;100536.75;;;19.28
76009;BMP280;64700;52.130;21.270;2023-05-02T02:29:29;100530.13;;;19.30
76009;BMP280;64700;52.130;21.270;2023-05-02T02:31:55;100531.78;;;19.27
76009;BMP280;64700;52.130;21.270;2023-05-02T02:34:20;100524.38;;;19.27
76009;BMP280;64700;52.130;21.270;2023-05-02T02:36:52;100519.88;;;19.24
76009;BMP280;64700;52.130;21.270;2023-05-02T02:39:34;100527.09;;;19.27
76009;BMP280;64700;52.130;21.270;2023-05-02T02:42:09;100526.38;;;19.27
76009;BMP280;64700;52.130;21.270;2023-05-02T02:47:04;100530.28;;;19.26
76009;BMP280;64700;52.130;21.270;2023-05-02T02:49:32;100524.84;;;19.26
76009;BMP280;64700;52.130;21.270;2023-05-02T02:52:09;100534.50;;;19.27
76009;BMP280;64700;52.130;21.270;2023-05-02T02:57:02;100527.41;;;19.30
76009;BMP280;64700;52.130;21.270;2023-05-02T02:59:30;100527.25;;;19.24
76009;BMP280;64700;52.130;21.270;2023-05-02T03:02:04;100522.59;;;19.24
76009;BMP280;64700;52.130;21.270;2023-05-02T03:04:30;100528.31;;;19.26
76009;BMP280;64700;52.130;21.270;2023-05-02T03:06:56;100518.22;;;19.27
76009;BMP280;64700;52.130;21.270;2023-05-02T03:09:22;100517.00;;;19.28
76009;BMP280;64700;52.130;21.270;2023-05-02T03:11:47;100519.28;;;19.30
76009;BMP280;64700;52.130;21.270;2023-05-02T03:14:12;100511.94;;;19.30
76009;BMP280;64700;52.130;21.270;2023-05-02T03:16:38;100511.31;;;19.26
76009;BMP280;64700;52.130;21.270;2023-05-02T03:19:03;100508.88;;;19.28
76009;BMP280;64700;52.130;21.270;2023-05-02T03:21:30;100510.09;;;19.27
76009;BMP280;64700;52.130;21.270;2023-05-02T03:23:58;100512.34;;;19.28
76009;BMP280;64700;52.130;21.270;2023-05-02T03:26:24;100523.94;;;19.29
76009;BMP280;64700;52.130;21.270;2023-05-02T03:28:50;100513.84;;;19.30
76009;BMP280;64700;52.130;21.270;2023-05-02T03:31:15;100512.81;;;19.27
76009;BMP280;64700;52.130;21.270;2023-05-02T03:33:41;100514.28;;;19.28
76009;BMP280;64700;52.130;21.270;2023-05-02T03:36:06;100527.84;;;19.28
76009;BMP280;64700;52.130;21.270;2023-05-02T03:38:31;100524.09;;;19.25
76009;BMP280;64700;52.130;21.270;2023-05-02T03:40:56;100520.94;;;19.27
76009;BMP280;64700;52.130;21.270;2023-05-02T03:43:22;100523.19;;;19.28
76009;BMP280;64700;52.130;21.270;2023-05-02T03:45:47;100521.22;;;19.29
76009;BMP280;64700;52.130;21.270;2023-05-02T03:48:12;100524.38;;;19.27
76009;BMP280;64700;52.130;21.270;2023-05-02T03:50:38;100525.91;;;19.28
76009;BMP280;64700;52.130;21.270;2023-05-02T03:53:03;100525.13;;;19.28
76009;BMP280;64700;52.130;21.270;2023-05-02T03:55:28;100530.13;;;19.30
76009;BMP280;64700;52.130;21.270;2023-05-02T03:57:53;100526.38;;;19.27
76009;BMP280;64700;52.130;21.270;2023-05-02T04:00:19;100528.31;;;19.26
76009;BMP280;64700;52.130;21.270;2023-05-02T04:02:44;100528.59;;;19.28
76009;BMP280;64700;52.130;21.270;2023-05-02T04:05:09;100528.59;;;19.28
76009;BMP280;64700;52.130;21.270;2023-05-02T04:07:35;100536.75;;;19.28
76009;BMP280;64700;52.130;21.270;2023-05-02T04:10:00;100536.31;;;19.30
76009;BMP280;64700;52.130;21.270;2023-05-02T04:12:25;100541.41;;;19.28
76009;BMP280;64700;52.130;21.270;2023-05-02T04:14:50;100531.03;;;19.26
76009;BMP280;64700;52.130;21.270;2023-05-02T04:17:16;100540.97;;;19.30
76009;BMP280;64700;52.130;21.270;2023-05-02T04:19:41;100541.41;;;19.28
76009;BMP280;64700;52.130;21.270;2023-05-02T04:22:06;100533.63;;;19.30
76009;BMP280;64700;52.130;21.270;2023-05-02T04:24:31;100536.75;;;19.28
76009;BMP280;64700;52.130;21.270;2023-05-02T04:26:57;100538.25;;;19.30
76009;BMP280;64700;52.130;21.270;2023-05-02T04:29:22;100539.44;;;19.28
76009;BMP280;64700;52.130;21.270;2023-05-02T04:31:47;100540.19;;;19.29
76009;BMP280;64700;52.130;21.270;2023-05-02T04:34:13;100537.09;;;19.31
76009;BMP280;64700;52.130;21.270;2023-05-02T04:36:38;100535.53;;;19.30
76009;BMP280;64700;52.130;21.270;2023-05-02T04:39:04;100534.38;;;19.31
76009;BMP280;64700;52.130;21.270;2023-05-02T04:41:31;100529.34;;;19.29
76009;BMP280;64700;52.130;21.270;2023-05-02T04:43:56;100526.53;;;19.33
76009;BMP280;64700;52.130;21.270;2023-05-02T04:46:22;100532.41;;;19.31
76009;BMP280;64700;52.130;21.270;2023-05-02T04:48:47;100532.41;;;19.31
76009;BMP280;64700;52.130;21.270;2023-05-02T04:51:12;100535.41;;;19.33
76009;BMP280;64700;52.130;21.270;2023-05-02T04:53:38;100529.97;;;19.33
76009;BMP280;64700;52.130;21.270;2023-05-02T04:56:03;100535.53;;;19.30
76009;BMP280;64700;52.130;21.270;2023-05-02T04:58:28;100540.97;;;19.30
76009;BMP280;64700;52.130;21.270;2023-05-02T05:00:54;100541.59;;;19.34
76009;BMP280;64700;52.130;21.270;2023-05-02T05:03:19;100542.03;;;19.32
76009;BMP280;64700;52.130;21.270;2023-05-02T05:05:45;100538.13;;;19.33
76009;BMP280;64700;52.130;21.270;2023-05-02T05:08:11;100535.41;;;19.33
76009;BMP280;64700;52.130;21.270;2023-05-02T05:10:36;100533.16;;;19.32
76009;BMP280;64700;52.130;21.270;2023-05-02T05:13:01;100534.97;;;19.35
76009;BMP280;64700;52.130;21.270;2023-05-02T05:15:28;100531.50;;;19.34
76009;BMP280;64700;52.130;21.270;2023-05-02T05:17:53;100533.16;;;19.32
76009;BMP280;64700;52.130;21.270;2023-05-02T05:20:18;100526.81;;;19.35
76009;BMP280;64700;52.130;21.270;2023-05-02T05:22:43;100536.91;;;19.34
76009;BMP280;64700;52.130;21.270;2023-05-02T05:25:09;100532.25;;;19.35
76009;BMP280;64700;52.130;21.270;2023-05-02T05:27:34;100523.81;;;19.33
76009;BMP280;64700;52.130;21.270;2023-05-02T05:30:00;100521.41;;;19.35
76009;BMP280;64700;52.130;21.270;2023-05-02T05:32:25;100526.06;;;19.34
76009;BMP280;64700;52.130;21.270;2023-05-02T05:34:51;100524.72;;;19.39
76009;BMP280;64700;52.130;21.270;2023-05-02T05:37:16;100525.91;;;19.38
76009;BMP280;64700;52.130;21.270;2023-05-02T05:39:42;100527.13;;;19.37
76009;BMP280;64700;52.130;21.270;2023-05-02T05:42:07;100516.25;;;19.37
76009;BMP280;64700;52.130;21.270;2023-05-02T05:44:33;100520.97;;;19.36
76009;BMP280;64700;52.130;21.270;2023-05-02T05:46:58;100526.66;;;19.38
76009;BMP280;64700;52.130;21.270;2023-05-02T05:49:24;100525.47;;;19.39
76009;BMP280;64700;52.130;21.270;2023-05-02T05:51:49;100529.22;;;19.42
76009;BMP280;64700;52.130;21.270;2023-05-02T05:54:15;100518.84;;;19.40
76009;BMP280;64700;52.130;21.270;2023-05-02T05:56:40;100516.13;;;19.40
76009;BMP280;64700;52.130;21.270;2023-05-02T05:59:05;100524.88;;;19.44
76009;BMP280;64700;52.130;21.270;2023-05-02T06:01:30;100519.75;;;19.46
76009;BMP280;64700;52.130;21.270;2023-05-02T06:03:56;100526.41;;;19.45
76009;BMP280;64700;52.130;21.270;2023-05-02T06:06:21;100523.22;;;19.47
76009;BMP280;64700;52.130;21.270;2023-05-02T06:08:46;100515.38;;;19.49
76009;BMP280;64700;52.130;21.270;2023-05-02T06:11:11;100522.28;;;19.50
76009;BMP280;64700;52.130;21.270;2023-05-02T06:13:36;100518.69;;;19.53
76009;BMP280;64700;52.130;21.270;2023-05-02T06:16:02;100514.47;;;19.52
76009;BMP280;64700;52.130;21.270;2023-05-02T06:18:27;100514.78;;;19.54
76009;BMP280;64700;52.130;21.270;2023-05-02T06:20:53;100514.78;;;19.54
76009;BMP280;64700;52.130;21.270;2023-05-02T06:23:18;100517.03;;;19.55
76009;BMP280;64700;52.130;21.270;2023-05-02T06:25:43;100522.44;;;19.55
76009;BMP280;64700;52.130;21.270;2023-05-02T06:28:09;100515.69;;;19.60
76009;BMP280;64700;52.130;21.270;2023-05-02T06:30:34;100523.66;;;19.63
76009;BMP280;64700;52.130;21.270;2023-05-02T06:32:59;100525.63;;;19.63
76009;BMP280;64700;52.130;21.270;2023-05-02T06:35:24;100532.09;;;19.65
76009;BMP280;64700;52.130;21.270;2023-05-02T06:37:49;100512.19;;;19.68
76009;BMP280;64700;52.130;21.270;2023-05-02T06:40:15;100519.72;;;19.74
76009;BMP280;64700;52.130;21.270;2023-05-02T06:42:40;100533.13;;;19.77
76009;BMP280;64700;52.130;21.270;2023-05-02T06:45:05;100524.84;;;19.81
76009;BMP280;64700;52.130;21.270;2023-05-02T06:47:31;100521.50;;;19.86
76009;BMP280;64700;52.130;21.270;2023-05-02T06:49:56;100532.66;;;19.88
76009;BMP280;64700;52.130;21.270;2023-05-02T06:52:22;100525.91;;;19.92
76009;BMP280;64700;52.130;21.270;2023-05-02T06:54:47;100523.94;;;19.93
76009;BMP280;64700;52.130;21.270;2023-05-02T06:57:12;100520.75;;;19.94
76009;BMP280;64700;52.130;21.270;2023-05-02T06:59:37;100532.84;;;19.93
76009;BMP280;64700;52.130;21.270;2023-05-02T07:02:02;100530.84;;;19.94
76009;BMP280;64700;52.130;21.270;2023-05-02T07:04:28;100529.66;;;19.95
76009;BMP280;64700;52.130;21.270;2023-05-02T07:06:53;100536.59;;;19.96
76009;BMP280;64700;52.130;21.270;2023-05-02T07:09:18;100536.59;;;19.96
76009;BMP280;64700;52.130;21.270;2023-05-02T07:11:43;100531.91;;;19.96
76009;BMP280;64700;52.130;21.270;2023-05-02T07:14:08;100525.28;;;19.97
76009;BMP280;64700;52.130;21.270;2023-05-02T07:16:34;100528.28;;;19.99
76009;BMP280;64700;52.130;21.270;2023-05-02T07:18:59;100528.28;;;19.99
76009;BMP280;64700;52.130;21.270;2023-05-02T07:21:25;100528.56;;;20.01
76009;BMP280;64700;52.130;21.270;2023-05-02T07:23:50;100526.13;;;20.03
76009;BMP280;64700;52.130;21.270;2023-05-02T07:26:15;100521.78;;;20.06
76009;BMP280;64700;52.130;21.270;2023-05-02T07:28:43;100528.25;;;20.08
76009;BMP280;64700;52.130;21.270;2023-05-02T07:31:08;100528.25;;;20.08
76009;BMP280;64700;52.130;21.270;2023-05-02T07:33:33;100516.19;;;20.10
76009;BMP280;64700;52.130;21.270;2023-05-02T07:36:00;100525.81;;;20.11
76009;BMP280;64700;52.130;21.270;2023-05-02T07:38:26;100525.81;;;20.11
76009;BMP280;64700;52.130;21.270;2023-05-02T07:40:51;100538.50;;;20.14
76009;BMP280;64700;52.130;21.270;2023-05-02T07:43:16;100539.69;;;20.13
76009;BMP280;64700;52.130;21.270;2023-05-02T07:45:41;100538.03;;;20.15
76009;BMP280;64700;52.130;21.270;2023-05-02T07:48:07;100536.81;;;20.16
76009;BMP280;64700;52.130;21.270;2023-05-02T07:50:32;100534.84;;;20.17
76009;BMP280;64700;52.130;21.270;2023-05-02T07:52:57;100530.63;;;20.16
76009;BMP280;64700;52.130;21.270;2023-05-02T07:55:22;100527.47;;;20.17
76009;BMP280;64700;52.130;21.270;2023-05-02T07:57:50;100524.31;;;20.19
76009;BMP280;64700;52.130;21.270;2023-05-02T08:00:15;100520.06;;;20.18
76009;BMP280;64700;52.130;21.270;2023-05-02T08:02:41;100520.38;;;20.20
76009;BMP280;64700;52.130;21.270;2023-05-02T08:05:06;100521.63;;;20.19
76009;BMP280;64700;52.130;21.270;2023-05-02T08:07:32;100513.47;;;20.19
76009;BMP280;64700;52.130;21.270;2023-05-02T08:09:59;100517.66;;;20.20
76009;BMP280;64700;52.130;21.270;2023-05-02T08:12:24;100515.72;;;20.20
76009;BMP280;64700;52.130;21.270;2023-05-02T08:14:49;100513.00;;;20.20
76009;BMP280;64700;52.130;21.270;2023-05-02T08:17:15;100505.59;;;20.21
76009;BMP280;64700;52.130;21.270;2023-05-02T08:19:40;100509.81;;;20.22
76009;BMP280;64700;52.130;21.270;2023-05-02T08:22:05;100516.00;;;20.22
76009;BMP280;64700;52.130;21.270;2023-05-02T08:24:30;100519.47;;;20.23
76009;BMP280;64700;52.130;21.270;2023-05-02T08:26:56;100505.91;;;20.23
76009;BMP280;64700;52.130;21.270;2023-05-02T08:29:22;100510.84;;;20.24
76009;BMP280;64700;52.130;21.270;2023-05-02T08:31:47;100517.53;;;20.23
76009;BMP280;64700;52.130;21.270;2023-05-02T08:34:12;100510.84;;;20.24
76009;BMP280;64700;52.130;21.270;2023-05-02T08:36:37;100523.22;;;20.25
76009;BMP280;64700;52.130;21.270;2023-05-02T08:39:02;100515.84;;;20.26
76009;BMP280;64700;52.130;21.270;2023-05-02T08:41:28;100520.81;;;20.27
76009;BMP280;64700;52.130;21.270;2023-05-02T08:43:54;100528.97;;;20.27
76009;BMP280;64700;52.130;21.270;2023-05-02T08:46:20;100519.59;;;20.28
76009;BMP280;64700;52.130;21.270;2023-05-02T08:48:46;100528.03;;;20.30
76009;BMP280;64700;52.130;21.270;2023-05-02T08:51:13;100511.44;;;20.28
76009;BMP280;64700;52.130;21.270;2023-05-02T08:53:40;100520.91;;;20.33
76009;BMP280;64700;52.130;21.270;2023-05-02T08:56:06;100523.22;;;20.34
76009;BMP280;64700;52.130;21.270;2023-05-02T08:58:32;100526.69;;;20.35
76009;BMP280;64700;52.130;21.270;2023-05-02T09:00:59;100522.00;;;20.35
76009;BMP280;64700;52.130;21.270;2023-05-02T09:03:28;100521.53;;;20.37
76009;BMP280;64700;52.130;21.270;2023-05-02T09:06:38;100526.06;;;20.40
76009;BMP280;64700;52.130;21.270;2023-05-02T09:08:48;100528.78;;;20.40
76009;BMP280;64700;52.130;21.270;2023-05-02T09:11:14;100522.09;;;20.41
76009;BMP280;64700;52.130;21.270;2023-05-02T09:13:40;100524.38;;;20.42
76009;BMP280;64700;52.130;21.270;2023-05-02T09:16:09;100524.38;;;20.42
76009;BMP280;64700;52.130;21.270;2023-05-02T09:18:36;100528.88;;;20.45
76009;BMP280;64700;52.130;21.270;2023-05-02T09:21:43;100528.00;;;20.48
76009;BMP280;64700;52.130;21.270;2023-05-02T09:23:51;100532.19;;;20.49
76009;BMP280;64700;52.130;21.270;2023-05-02T09:28:51;100535.97;;;20.52
76009;BMP280;64700;52.130;21.270;2023-05-02T09:31:18;100538.94;;;20.54
76009;BMP280;64700;52.130;21.270;2023-05-02T09:33:44;100533.81;;;20.56
76009;BMP280;64700;52.130;21.270;2023-05-02T09:36:13;100540.75;;;20.57
76009;BMP280;64700;52.130;21.270;2023-05-02T09:38:39;100531.38;;;20.58
76009;BMP280;64700;52.130;21.270;2023-05-02T09:41:04;100527.00;;;20.61
76009;BMP280;64700;52.130;21.270;2023-05-02T09:43:30;100536.97;;;20.64
76009;BMP280;64700;52.130;21.270;2023-05-02T09:45:56;100541.19;;;20.65
76009;BMP280;64700;52.130;21.270;2023-05-02T09:48:21;100537.22;;;20.66
76009;BMP280;64700;52.130;21.270;2023-05-02T09:50:46;100545.22;;;20.69
76009;BMP280;64700;52.130;21.270;2023-05-02T09:53:12;100538.56;;;20.70
76009;BMP280;64700;52.130;21.270;2023-05-02T09:55:37;100544.00;;;20.70
76009;BMP280;64700;52.130;21.270;2023-05-02T09:58:02;100549.44;;;20.70
76009;BMP280;64700;52.130;21.270;2023-05-02T10:00:38;100560.31;;;20.70
76009;BMP280;64700;52.130;21.270;2023-05-02T10:03:05;100558.34;;;20.71
76009;BMP280;64700;52.130;21.270;2023-05-02T10:05:30;100558.53;;;20.67
76009;BMP280;64700;52.130;21.270;2023-05-02T10:07:56;100559.28;;;20.68
76009;BMP280;64700;52.130;21.270;2023-05-02T10:10:21;100560.97;;;20.65
76009;BMP280;64700;52.130;21.270;2023-05-02T10:12:47;100561.41;;;20.64
76009;BMP280;64700;52.130;21.270;2023-05-02T10:15:13;100561.41;;;20.64
76009;BMP280;64700;52.130;21.270;2023-05-02T10:17:42;100569.84;;;20.66
76009;BMP280;64700;52.130;21.270;2023-05-02T10:20:11;100562.44;;;20.66
76009;BMP280;64700;52.130;21.270;2023-05-02T10:22:40;100573.88;;;20.70
76009;BMP280;64700;52.130;21.270;2023-05-02T10:25:06;100571.00;;;20.74
76009;BMP280;64700;52.130;21.270;2023-05-02T10:27:32;100574.94;;;20.73
76009;BMP280;64700;52.130;21.270;2023-05-02T10:29:58;100576.59;;;20.70
76009;BMP280;64700;52.130;21.270;2023-05-02T10:32:26;100577.84;;;20.69
76009;BMP280;64700;52.130;21.270;2023-05-02T10:34:51;100586.00;;;20.69
76009;BMP280;64700;52.130;21.270;2023-05-02T10:37:18;100575.56;;;20.68
76009;BMP280;64700;52.130;21.270;2023-05-02T10:39:43;100574.38;;;20.69
76009;BMP280;64700;52.130;21.270;2023-05-02T10:42:09;100579.06;;;20.68
76009;BMP280;64700;52.130;21.270;2023-05-02T10:44:35;100592.31;;;20.66
76009;BMP280;64700;52.130;21.270;2023-05-02T10:47:00;100597.78;;;20.66
76009;BMP280;64700;52.130;21.270;2023-05-02T10:49:26;100598.25;;;20.65
76009;BMP280;64700;52.130;21.270;2023-05-02T10:51:51;100594.28;;;20.66
76009;BMP280;64700;52.130;21.270;2023-05-02T10:59:27;100597.78;;;20.66
76009;BMP280;64700;52.130;21.270;2023-05-02T11:01:52;100607.16;;;20.65
76009;BMP280;64700;52.130;21.270;2023-05-02T11:04:17;100617.53;;;20.67
76009;BMP280;64700;52.130;21.270;2023-05-02T11:11:46;100620.44;;;20.63
76009;BMP280;64700;52.130;21.270;2023-05-02T11:14:40;100631.31;;;20.63
76009;BMP280;64700;52.130;21.270;2023-05-02T11:19:26;100641.38;;;20.63
76009;BMP280;64700;52.130;21.270;2023-05-02T11:21:51;100643.06;;;20.60
76009;BMP280;64700;52.130;21.270;2023-05-02T11:24:36;100640.63;;;20.62
76009;BMP280;64700;52.130;21.270;2023-05-02T11:29:53;100660.88;;;20.61
76009;BMP280;64700;52.130;21.270;2023-05-02T11:32:18;100677.91;;;20.62
76009;BMP280;64700;52.130;21.270;2023-05-02T11:34:43;100682.16;;;20.63
76009;BMP280;64700;52.130;21.270;2023-05-02T11:37:10;100684.09;;;20.62
76009;BMP280;64700;52.130;21.270;2023-05-02T11:39:35;100698.44;;;20.63
76009;BMP280;64700;52.130;21.270;2023-05-02T11:42:00;100697.69;;;20.62
76009;BMP280;64700;52.130;21.270;2023-05-02T11:44:25;100705.09;;;20.62
76009;BMP280;64700;52.130;21.270;2023-05-02T11:46:52;100712.19;;;20.59
76009;BMP280;64700;52.130;21.270;2023-05-02T11:49:17;100721.09;;;20.60
76009;BMP280;64700;52.130;21.270;2023-05-02T11:51:42;100725.78;;;20.59
76009;BMP280;64700;52.130;21.270;2023-05-02T11:54:07;100717.63;;;20.59
76009;BMP280;64700;52.130;21.270;2023-05-02T11:56:34;100723.06;;;20.59
76009;BMP280;64700;52.130;21.270;2023-05-02T11:59:00;100727.56;;;20.62
76009;BMP280;64700;52.130;21.270;2023-05-02T12:01:25;100721.38;;;20.62
76009;BMP280;64700;52.130;21.270;2023-05-02T12:04:00;100733.63;;;20.66
76009;BMP280;64700;52.130;21.270;2023-05-02T12:06:25;100729.69;;;20.67
76009;BMP280;64700;52.130;21.270;2023-05-02T12:08:51;100731.22;;;20.68
76009;BMP280;64700;52.130;21.270;2023-05-02T12:11:29;100740.13;;;20.69
76009;BMP280;64700;52.130;21.270;2023-05-02T12:13:55;100736.19;;;20.70
76009;BMP280;64700;52.130;21.270;2023-05-02T12:16:20;100745.09;;;20.70
76009;BMP280;64700;52.130;21.270;2023-05-02T12:18:46;100751.00;;;20.69
76009;BMP280;64700;52.130;21.270;2023-05-02T12:21:11;100756.44;;;20.69
76009;BMP280;64700;52.130;21.270;2023-05-02T12:23:38;100756.88;;;20.67
76009;BMP280;64700;52.130;21.270;2023-05-02T12:26:19;100756.59;;;20.65
76009;BMP280;64700;52.130;21.270;2023-05-02T12:28:49;100764.00;;;20.65
76009;BMP280;64700;52.130;21.270;2023-05-02T12:31:14;100759.31;;;20.65
76009;BMP280;64700;52.130;21.270;2023-05-02T12:33:40;100763.53;;;20.66
76009;BMP280;64700;52.130;21.270;2023-05-02T12:36:06;100765.47;;;20.66
76009;BMP280;64700;52.130;21.270;2023-05-02T12:38:32;100775.16;;;20.67
76009;BMP280;64700;52.130;21.270;2023-05-02T12:41:00;100773.94;;;20.68
76009;BMP280;64700;52.130;21.270;2023-05-02T12:43:25;100773.94;;;20.68
76009;BMP280;64700;52.130;21.270;2023-05-02T12:45:57;100773.94;;;20.68
76009;BMP280;64700;52.130;21.270;2023-05-02T12:48:32;100774.22;;;20.70
76009;BMP280;64700;52.130;21.270;2023-05-02T12:50:58;100773.50;;;20.69
76009;BMP280;64700;52.130;21.270;2023-05-02T12:53:39;100764.88;;;20.71
76009;BMP280;64700;52.130;21.270;2023-05-02T12:56:05;100766.06;;;20.70
76009;BMP280;64700;52.130;21.270;2023-05-02T12:58:37;100772.25;;;20.70
76009;BMP280;64700;52.130;21.270;2023-05-02T13:01:03;100779.97;;;20.72
76009;BMP280;64700;52.130;21.270;2023-05-02T13:03:29;100789.63;;;20.73
76009;BMP280;64700;52.130;21.270;2023-05-02T13:05:54;100778.44;;;20.71
76009;BMP280;64700;52.130;21.270;2023-05-02T13:08:19;100780.25;;;20.74
76009;BMP280;64700;52.130;21.270;2023-05-02T13:10:44;100784.94;;;20.73
76009;BMP280;64700;52.130;21.270;2023-05-02T13:13:10;100781.47;;;20.73
76009;BMP280;64700;52.130;21.270;2023-05-02T13:15:35;100781.47;;;20.73
76009;BMP280;64700;52.130;21.270;2023-05-02T13:18:00;100787.66;;;20.73
76009;BMP280;64700;52.130;21.270;2023-05-02T13:20:25;100788.41;;;20.74
76009;BMP280;64700;52.130;21.270;2023-05-02T13:22:51;100780.72;;;20.72
76009;BMP280;64700;52.130;21.270;2023-05-02T13:25:16;100795.50;;;20.71
76009;BMP280;64700;52.130;21.270;2023-05-02T13:27:41;100797.47;;;20.71
76009;BMP280;64700;52.130;21.270;2023-05-02T13:30:07;100794.91;;;20.67
76009;BMP280;64700;52.130;21.270;2023-05-02T13:32:32;100793.41;;;20.66
76009;BMP280;64700;52.130;21.270;2023-05-02T13:34:57;100789.50;;;20.67
76009;BMP280;64700;52.130;21.270;2023-05-02T13:37:22;100796.88;;;20.67
76009;BMP280;64700;52.130;21.270;2023-05-02T13:39:48;100795.84;;;20.64
76009;BMP280;64700;52.130;21.270;2023-05-02T13:42:13;100795.84;;;20.64
76009;BMP280;64700;52.130;21.270;2023-05-02T13:44:38;100808.69;;;20.64
76009;BMP280;64700;52.130;21.270;2023-05-02T13:47:03;100798.97;;;20.63
76009;BMP280;64700;52.130;21.270;2023-05-02T13:49:28;100805.97;;;20.64
76009;BMP280;64700;52.130;21.270;2023-05-02T13:51:54;100804.00;;;20.64
76009;BMP280;64700;52.130;21.270;2023-05-02T13:54:19;100806.72;;;20.64
76009;BMP280;64700;52.130;21.270;2023-05-02T13:56:45;100808.97;;;20.66
76009;BMP280;64700;52.130;21.270;2023-05-02T13:59:10;100813.94;;;20.67
76009;BMP280;64700;52.130;21.270;2023-05-02T14:01:35;100805.34;;;20.69
76009;BMP280;64700;52.130;21.270;2023-05-02T14:04:01;100817.41;;;20.68
76009;BMP280;64700;52.130;21.270;2023-05-02T14:06:33;100807.31;;;20.68
76009;BMP280;64700;52.130;21.270;2023-05-02T14:08:58;100818.94;;;20.69